createdAt,value
2018-06-08T00:00:35.960Z,40.55
2018-06-08T00:03:05.990Z,38.16
2018-06-08T00:05:36.154Z,36.25
2018-06-08T00:08:06.236Z,39.48
2018-06-08T00:10:36.173Z,37.65
2018-06-08T00:13:06.242Z,38.30
2018-06-08T00:15:36.270Z,38.63
2018-06-08T00:18:06.287Z,37.23
2018-06-08T00:20:36.286Z,35.35
2018-06-08T00:23:06.259Z,41.25
2018-06-08T00:25:36.420Z,38.35
2018-06-08T00:28:06.466Z,36.60
2018-06-08T00:30:36.522Z,38.42
2018-06-08T00:33:06.482Z,37.13
2018-06-08T00:35:36.399Z,36.70
2018-06-08T00:38:06.532Z,35.58
2018-06-08T00:40:36.492Z,37.55
2018-06-08T00:43:06.510Z,38.90
2018-06-08T00:45:36.489Z,38.67
2018-06-08T00:48:06.661Z,38.06
2018-06-08T00:50:36.551Z,38.33
2018-06-08T00:53:06.578Z,36.06
2018-06-08T00:55:37.937Z,38.80
2018-06-08T00:58:06.954Z,37.57
2018-06-08T01:00:36.726Z,37.58
2018-06-08T01:03:06.800Z,35.45
2018-06-08T01:05:36.683Z,34.43
2018-06-08T01:08:06.701Z,32.73
2018-06-08T01:10:36.789Z,38.16
2018-06-08T01:13:06.806Z,33.75
2018-06-08T01:15:36.765Z,35.66
2018-06-08T01:18:06.910Z,37.53
2018-06-08T01:20:36.989Z,37.15
2018-06-08T01:23:07.024Z,37.65
2018-06-08T01:25:36.905Z,35.15
2018-06-08T01:28:07.026Z,36.74
2018-06-08T01:30:36.951Z,35.65
2018-06-08T01:33:07.011Z,33.66
2018-06-08T01:35:37.013Z,33.53
2018-06-08T01:38:07.071Z,33.24
2018-06-08T01:40:37.058Z,31.95
2018-06-08T01:43:07.088Z,33.72
2018-06-08T01:45:37.110Z,34.14
2018-06-08T01:48:07.250Z,31.48
2018-06-08T01:50:37.270Z,31.02
2018-06-08T01:53:07.290Z,32.25
2018-06-08T01:55:37.237Z,30.27
2018-06-08T01:58:07.270Z,28.48
2018-06-08T02:00:37.317Z,32.56
2018-06-08T02:03:07.330Z,29.84
2018-06-08T02:05:37.479Z,36.23
2018-06-08T02:08:07.418Z,36.28
2018-06-08T02:10:41.046Z,37.66
2018-06-08T02:13:10.054Z,43.20
2018-06-08T02:15:39.054Z,40.37
2018-06-08T02:18:08.081Z,40.53
2018-06-08T02:20:37.593Z,43.55
2018-06-08T02:23:07.677Z,45.08
2018-06-08T02:25:37.641Z,43.15
2018-06-08T02:28:07.708Z,41.40
2018-06-08T02:30:37.706Z,37.45
2018-06-08T02:33:07.991Z,40.80
2018-06-08T02:35:37.796Z,43.68
2018-06-08T02:38:07.900Z,40.48
2018-06-08T02:40:37.897Z,39.78
2018-06-08T02:43:07.878Z,38.78
2018-06-08T02:45:37.906Z,37.92
2018-06-08T02:48:07.937Z,38.22
2018-06-08T02:50:37.978Z,40.92
2018-06-08T02:53:08.379Z,39.70
2018-06-08T02:55:38.096Z,38.23
2018-06-08T02:58:08.116Z,37.42
2018-06-08T03:00:38.081Z,39.30
2018-06-08T03:03:08.094Z,36.12
2018-06-08T03:05:38.219Z,39.55
2018-06-08T03:08:08.150Z,41.60
2018-06-08T03:10:38.326Z,42.27
2018-06-08T03:13:08.310Z,38.53
2018-06-08T03:15:38.255Z,37.48
2018-06-08T03:18:08.345Z,42.08
2018-06-08T03:20:38.318Z,40.85
2018-06-08T03:23:07.317Z,37.93
2018-06-08T03:25:36.354Z,39.20
2018-06-08T03:28:05.529Z,37.60
2018-06-08T03:30:34.518Z,35.03
2018-06-08T03:33:03.585Z,36.17
2018-06-08T03:35:32.637Z,36.47
2018-06-08T03:38:01.649Z,35.97
2018-06-08T03:40:30.730Z,37.57
2018-06-08T03:42:59.593Z,32.00
2018-06-08T03:45:28.719Z,33.87
2018-06-08T03:47:57.806Z,36.47
2018-06-08T03:50:26.896Z,33.40
2018-06-08T03:52:55.894Z,32.60
2018-06-08T03:55:24.973Z,31.40
2018-06-08T03:57:54.074Z,30.43
2018-06-08T04:00:23.162Z,30.80
2018-06-08T04:02:52.150Z,30.03
2018-06-08T04:05:21.162Z,36.90
2018-06-08T04:07:50.749Z,32.30
2018-06-08T04:10:19.858Z,31.13
2018-06-08T04:12:49.785Z,30.20
2018-06-08T04:15:18.786Z,28.33
2018-06-08T04:17:47.858Z,31.97
2018-06-08T04:20:16.853Z,28.37
2018-06-08T04:22:45.856Z,31.37
2018-06-08T04:25:14.853Z,31.37
2018-06-08T04:27:43.806Z,36.77
2018-06-08T04:30:12.811Z,33.87
2018-06-08T04:32:41.842Z,35.10
2018-06-08T04:35:10.898Z,35.30
2018-06-08T04:37:39.881Z,36.27
2018-06-08T04:40:09.728Z,35.53
2018-06-08T04:42:38.809Z,37.00
2018-06-08T04:45:07.800Z,34.50
2018-06-08T04:47:36.794Z,37.80
2018-06-08T04:50:05.870Z,36.50
2018-06-08T04:52:34.973Z,35.00
2018-06-08T04:55:03.953Z,36.53
2018-06-08T04:57:32.953Z,37.87
2018-06-08T05:00:01.938Z,38.53
2018-06-08T05:02:30.954Z,35.80
2018-06-08T05:05:00.050Z,37.90
2018-06-08T05:07:29.030Z,36.70
2018-06-08T05:09:58.142Z,35.50
2018-06-08T05:12:27.214Z,37.40
2018-06-08T05:14:56.342Z,37.57
2018-06-08T05:17:25.421Z,35.90
2018-06-08T05:19:54.418Z,35.63
2018-06-08T05:22:23.409Z,35.73
2018-06-08T05:24:52.495Z,32.43
2018-06-08T05:27:21.489Z,36.47
2018-06-08T05:29:50.494Z,32.60
2018-06-08T05:32:19.486Z,34.43
2018-06-08T05:34:48.568Z,36.03
2018-06-08T05:37:17.577Z,31.23
2018-06-08T05:39:46.563Z,33.73
2018-06-08T05:42:15.597Z,34.07
2018-06-08T05:44:44.595Z,35.37
2018-06-08T05:47:13.581Z,35.80
2018-06-08T05:49:42.577Z,35.10
2018-06-08T05:52:11.565Z,35.00
2018-06-08T05:54:40.560Z,32.57
2018-06-08T05:57:09.574Z,36.73
2018-06-08T05:59:38.564Z,35.73
2018-06-08T06:02:07.605Z,33.93
2018-06-08T06:04:36.665Z,35.60
2018-06-08T06:07:05.998Z,35.33
2018-06-08T06:09:35.072Z,35.37
2018-06-08T06:12:04.065Z,39.57
2018-06-08T06:14:33.075Z,36.53
2018-06-08T06:17:02.187Z,42.43
2018-06-08T06:19:31.378Z,36.07
2018-06-08T06:22:00.494Z,33.20
2018-06-08T06:24:29.594Z,34.33
2018-06-08T06:26:58.678Z,32.87
2018-06-08T06:29:27.882Z,34.97
2018-06-08T06:31:57.020Z,32.17
2018-06-08T06:34:26.098Z,35.30
2018-06-08T06:36:55.234Z,33.00
2018-06-08T06:39:24.317Z,35.67
2018-06-08T06:41:53.501Z,43.57
2018-06-08T06:44:22.509Z,30.37
2018-06-08T06:46:51.562Z,35.63
2018-06-08T06:49:20.754Z,34.83
2018-06-08T06:51:49.866Z,36.17
2018-06-08T06:54:18.846Z,33.70
2018-06-08T06:56:47.902Z,30.80
2018-06-08T06:59:19.065Z,32.20
2018-06-08T07:01:47.885Z,31.60
2018-06-08T07:04:16.874Z,34.50
2018-06-08T07:06:46.034Z,28.37
2018-06-08T07:09:15.214Z,28.90
2018-06-08T07:11:44.255Z,35.13
2018-06-08T07:14:13.326Z,29.40
2018-06-08T07:16:42.359Z,26.87
2018-06-08T07:19:11.510Z,30.30
2018-06-08T07:21:40.498Z,30.00
2018-06-08T07:24:09.770Z,33.10
2018-06-08T07:26:38.969Z,30.87
2018-06-08T07:29:08.150Z,33.80
2018-06-08T07:31:37.197Z,32.27
2018-06-08T07:34:06.237Z,33.83
2018-06-08T07:36:35.230Z,32.07
2018-06-08T07:39:07.618Z,33.33
2018-06-08T07:41:36.895Z,33.00
2018-06-08T07:44:05.891Z,31.43
2018-06-08T07:46:34.953Z,31.73
2018-06-08T07:49:04.113Z,31.90
2018-06-08T07:51:33.360Z,31.40
2018-06-08T07:54:05.532Z,30.10
2018-06-08T07:56:34.698Z,30.43
2018-06-08T07:59:03.838Z,32.60
2018-06-08T08:01:32.916Z,32.23
2018-06-08T08:04:01.998Z,29.40
2018-06-08T08:06:31.059Z,29.20
2018-06-08T08:09:00.313Z,30.83
2018-06-08T08:11:29.311Z,30.40
2018-06-08T08:13:58.564Z,30.10
2018-06-08T08:16:27.603Z,28.80
2018-06-08T08:18:56.738Z,24.20
2018-06-08T08:21:25.812Z,27.00
2018-06-08T08:23:54.968Z,77.07
2018-06-08T08:26:24.136Z,23.70
2018-06-08T08:28:53.286Z,21.87
2018-06-08T08:31:22.282Z,22.20
2018-06-08T08:33:51.466Z,24.60
2018-06-08T08:36:20.598Z,24.30
2018-06-08T08:38:49.792Z,22.73
2018-06-08T08:41:18.869Z,22.90
2018-06-08T08:43:48.031Z,22.00
2018-06-08T08:46:17.211Z,21.13
2018-06-08T08:48:46.258Z,22.40
2018-06-08T08:51:15.309Z,23.83
2018-06-08T08:53:44.286Z,23.13
2018-06-08T08:56:13.462Z,19.30
2018-06-08T08:58:43.297Z,19.50
2018-06-08T09:01:12.302Z,18.30
2018-06-08T09:03:41.414Z,18.37
2018-06-08T09:06:10.537Z,19.30
2018-06-08T09:08:39.526Z,21.00
2018-06-08T09:11:08.667Z,23.73
2018-06-08T09:13:37.872Z,23.53
2018-06-08T09:16:07.258Z,31.00
2018-06-08T09:18:36.386Z,22.27
2018-06-08T09:21:05.450Z,23.20
2018-06-08T09:23:34.646Z,24.40
2018-06-08T09:26:03.726Z,21.60
2018-06-08T09:28:32.857Z,23.57
2018-06-08T09:31:01.894Z,25.40
2018-06-08T09:33:30.910Z,28.10
2018-06-08T09:35:59.935Z,24.60
2018-06-08T09:38:29.056Z,23.17
2018-06-08T09:40:58.219Z,25.23
2018-06-08T09:43:27.228Z,25.33
2018-06-08T09:45:56.286Z,24.70
2018-06-08T09:48:25.386Z,23.77
2018-06-08T09:50:54.562Z,23.33
2018-06-08T09:53:23.730Z,21.37
2018-06-08T09:55:52.737Z,21.87
2018-06-08T09:58:21.722Z,22.17
2018-06-08T10:00:50.880Z,34.23
2018-06-08T10:03:21.675Z,24.50
2018-06-08T10:05:50.666Z,23.97
2018-06-08T10:08:19.658Z,24.00
2018-06-08T10:10:48.658Z,21.20
2018-06-08T10:13:17.647Z,21.53
2018-06-08T10:15:46.650Z,20.80
2018-06-08T10:18:15.634Z,21.30
2018-06-08T10:20:44.625Z,20.10
2018-06-08T10:23:13.605Z,20.33
2018-06-08T10:25:43.080Z,22.30
2018-06-08T10:28:12.150Z,24.40
2018-06-08T10:30:41.182Z,20.93
2018-06-08T10:33:10.170Z,18.53
2018-06-08T10:35:39.153Z,22.03
2018-06-08T10:38:08.145Z,18.30
2018-06-08T10:40:37.165Z,21.03
2018-06-08T10:43:06.166Z,25.17
2018-06-08T10:45:36.344Z,20.67
2018-06-08T10:48:05.534Z,23.17
2018-06-08T10:50:34.574Z,20.53
2018-06-08T10:53:03.580Z,18.27
2018-06-08T10:55:32.569Z,18.10
2018-06-08T10:58:01.691Z,19.97
2018-06-08T11:00:30.780Z,22.10
2018-06-08T11:02:59.853Z,20.37
2018-06-08T11:05:28.905Z,19.60
2018-06-08T11:07:57.933Z,18.20
2018-06-08T11:10:26.933Z,15.80
2018-06-08T11:12:55.929Z,16.03
2018-06-08T11:15:24.929Z,16.40
2018-06-08T11:17:54.030Z,15.43
2018-06-08T11:20:23.118Z,15.43
2018-06-08T11:22:52.108Z,21.80
2018-06-08T11:25:21.102Z,17.57
2018-06-08T11:27:50.118Z,17.30
2018-06-08T11:30:18.958Z,15.90
2018-06-08T11:32:47.958Z,14.60
2018-06-08T11:35:16.937Z,14.47
2018-06-08T11:37:45.959Z,16.50
2018-06-08T11:40:14.976Z,17.03
2018-06-08T11:42:43.990Z,15.80
2018-06-08T11:45:13.054Z,13.17
2018-06-08T11:47:42.068Z,12.93
2018-06-08T11:50:11.065Z,13.93
2018-06-08T11:52:40.154Z,12.80
2018-06-08T11:55:09.059Z,13.17
2018-06-08T11:57:38.312Z,14.13
2018-06-08T12:00:07.426Z,14.50
2018-06-08T12:02:36.506Z,12.53
2018-06-08T12:05:05.504Z,13.27
2018-06-08T12:25:31.058Z,10.90
2018-06-08T12:28:00.205Z,11.67
2018-06-08T12:30:29.317Z,13.07
2018-06-08T12:32:58.469Z,12.20
2018-06-08T12:35:27.611Z,9.90
2018-06-08T12:38:17.835Z,9.30
2018-06-08T12:43:37.775Z,9.93
2018-06-08T12:46:06.938Z,10.15
2018-06-08T12:48:36.120Z,9.80
2018-06-08T12:51:05.324Z,8.45
2018-06-08T12:53:34.426Z,8.43
2018-06-08T12:56:03.582Z,8.27
2018-06-08T12:58:32.722Z,8.50
2018-06-08T13:01:01.894Z,8.85
2018-06-08T13:03:31.113Z,9.30
2018-06-08T13:06:00.294Z,7.97
2018-06-08T13:08:29.517Z,8.63
2018-06-08T13:10:58.617Z,7.53
2018-06-08T13:13:27.847Z,8.35
2018-06-08T13:15:57.057Z,6.97
2018-06-08T13:18:26.132Z,6.97
2018-06-08T13:20:55.374Z,7.90
2018-06-08T13:23:24.570Z,7.43
2018-06-08T13:25:54.916Z,7.60
2018-06-08T13:28:24.100Z,7.22
2018-06-08T13:30:53.271Z,6.90
2018-06-08T13:33:22.477Z,7.75
2018-06-08T13:35:51.689Z,7.40
2018-06-08T13:38:20.933Z,7.53
2018-06-08T13:40:50.134Z,7.60
2018-06-08T13:43:19.320Z,9.10
2018-06-08T13:45:48.453Z,8.03
2018-06-08T13:48:17.669Z,7.53
2018-06-08T13:50:46.926Z,7.80
2018-06-08T13:53:16.534Z,7.72
2018-06-08T13:55:46.614Z,8.15
2018-06-08T13:58:16.630Z,7.87
2018-06-08T14:00:46.702Z,8.97
2018-06-08T14:03:16.647Z,8.68
2018-06-08T14:05:46.721Z,8.73
2018-06-08T14:08:16.890Z,8.35
2018-06-08T14:10:46.690Z,8.60
2018-06-08T14:13:16.849Z,7.45
2018-06-08T14:15:47.047Z,9.63
2018-06-08T14:18:17.015Z,8.53
2018-06-08T14:20:46.995Z,7.87
2018-06-08T14:23:17.045Z,8.83
2018-06-08T14:25:47.111Z,8.50
2018-06-08T14:28:17.126Z,7.70
2018-06-08T14:30:47.942Z,8.03
2018-06-08T14:33:17.170Z,7.28
2018-06-08T14:35:47.230Z,8.13
2018-06-08T14:38:17.400Z,8.40
2018-06-08T14:40:47.384Z,7.65
2018-06-08T14:43:17.460Z,8.18
2018-06-08T14:45:47.471Z,8.00
2018-06-08T14:48:17.488Z,8.65
2018-06-08T14:50:47.534Z,8.10
2018-06-08T14:53:17.510Z,7.40
2018-06-08T14:55:47.515Z,6.90
2018-06-08T14:58:16.667Z,8.00
2018-06-08T15:00:45.884Z,7.73
2018-06-08T15:03:14.966Z,7.55
2018-06-08T15:05:44.120Z,8.10
2018-06-08T15:08:13.242Z,7.13
2018-06-08T15:10:42.434Z,7.10
2018-06-08T15:13:11.621Z,8.10
2018-06-08T15:15:40.822Z,7.03
2018-06-08T15:18:09.946Z,6.83
2018-06-08T15:20:39.185Z,7.87
2018-06-08T15:23:08.492Z,7.40
2018-06-08T15:25:37.416Z,7.80
2018-06-08T15:28:06.588Z,7.77
2018-06-08T15:30:35.732Z,8.03
2018-06-08T15:33:04.955Z,7.70
2018-06-08T15:35:34.237Z,7.87
2018-06-08T15:38:03.408Z,8.60
2018-06-08T15:40:32.483Z,6.87
2018-06-08T15:43:01.386Z,6.92
2018-06-08T15:45:30.543Z,5.90
2018-06-08T15:47:59.901Z,5.42
2018-06-08T15:50:30.404Z,5.83
2018-06-08T15:52:59.638Z,5.85
2018-06-08T15:55:28.806Z,7.30
2018-06-08T15:57:57.976Z,6.23
2018-06-08T16:00:27.163Z,7.35
2018-06-08T16:02:56.397Z,25.03
2018-06-08T16:05:25.568Z,7.20
2018-06-08T16:07:55.185Z,7.10
2018-06-08T16:10:24.368Z,9.08
2018-06-08T16:12:53.488Z,6.83
2018-06-08T16:15:22.664Z,6.97
2018-06-08T16:17:51.805Z,5.92
2018-06-08T16:20:20.983Z,5.67
2018-06-08T16:22:50.275Z,5.70
2018-06-08T16:25:19.478Z,5.70
2018-06-08T16:27:49.031Z,5.10
2018-06-08T16:30:19.210Z,5.33
2018-06-08T16:32:49.158Z,5.30
2018-06-08T16:35:21.695Z,5.47
2018-06-08T16:37:50.750Z,6.60
2018-06-08T16:40:19.890Z,5.17
2018-06-08T16:42:49.381Z,6.17
2018-06-08T16:45:19.348Z,6.35
2018-06-08T16:47:49.446Z,6.50
2018-06-08T16:50:19.720Z,6.53
2018-06-08T16:52:49.502Z,5.80
2018-06-08T16:55:19.539Z,6.75
2018-06-08T16:57:49.549Z,5.85
2018-06-08T17:00:19.590Z,5.30
2018-06-08T17:02:49.673Z,5.20
2018-06-08T17:05:19.699Z,5.20
2018-06-08T17:07:49.782Z,6.12
2018-06-08T17:10:19.752Z,6.40
2018-06-08T17:12:49.827Z,5.45
2018-06-08T17:15:19.823Z,5.72
2018-06-08T17:17:49.826Z,6.50
2018-06-08T17:20:19.818Z,6.33
2018-06-08T17:22:50.001Z,5.35
2018-06-08T17:25:20.014Z,10.63
2018-06-08T17:27:50.090Z,23.55
2018-06-08T17:30:20.020Z,7.40
2018-06-08T17:32:50.123Z,6.70
2018-06-08T17:35:19.834Z,7.00
2018-06-08T17:37:49.955Z,6.60
2018-06-08T17:40:20.208Z,6.53
2018-06-08T17:42:50.170Z,6.60
2018-06-08T17:45:20.298Z,6.60
2018-06-08T17:47:50.084Z,6.17
2018-06-08T17:50:20.360Z,6.37
2018-06-08T17:52:50.357Z,8.58
2018-06-08T17:55:20.237Z,18.20
2018-06-08T17:57:50.370Z,8.25
2018-06-08T18:00:20.348Z,6.85
2018-06-08T18:02:50.468Z,7.33
2018-06-08T18:05:20.409Z,7.55
2018-06-08T18:07:50.309Z,6.80
2018-06-08T18:10:20.409Z,6.95
2018-06-08T18:12:50.431Z,8.18
2018-06-08T18:15:20.454Z,7.20
2018-06-08T18:17:50.590Z,7.83
2018-06-08T18:20:20.538Z,7.35
2018-06-08T18:22:50.633Z,6.90
2018-06-08T18:25:20.578Z,8.28
2018-06-08T18:27:50.651Z,7.97
2018-06-08T18:30:20.666Z,7.90
2018-06-08T18:32:50.614Z,6.92
2018-06-08T18:35:20.484Z,7.78
2018-06-08T18:37:50.794Z,8.17
2018-06-08T18:40:20.647Z,7.17
2018-06-08T18:42:50.781Z,8.13
2018-06-08T18:45:20.772Z,7.45
2018-06-08T18:47:50.890Z,6.97
2018-06-08T18:50:20.798Z,6.90
2018-06-08T18:52:50.929Z,5.72
2018-06-08T18:55:20.826Z,5.90
2018-06-08T18:57:51.032Z,5.65
2018-06-08T19:00:20.975Z,4.83
2018-06-08T19:02:51.085Z,5.00
2018-06-08T19:05:20.937Z,4.85
2018-06-08T19:07:51.738Z,5.22
2018-06-08T19:10:20.865Z,4.60
2018-06-08T19:12:50.879Z,5.30
2018-06-08T19:15:21.090Z,4.17
2018-06-08T19:17:51.090Z,4.62
2018-06-08T19:20:22.361Z,4.83
2018-06-08T19:22:51.546Z,5.57
2018-06-08T19:25:21.178Z,5.58
2018-06-08T19:27:51.885Z,4.28
2018-06-08T19:30:21.111Z,4.67
2018-06-08T19:32:51.238Z,4.60
2018-06-08T19:35:21.166Z,4.70
2018-06-08T19:37:51.285Z,4.27
2018-06-08T19:40:21.210Z,103.75
2018-06-08T19:42:51.298Z,5.85
2018-06-08T19:45:21.268Z,5.12
2018-06-08T19:47:51.286Z,5.40
2018-06-08T19:50:21.254Z,5.07
2018-06-08T19:52:51.456Z,5.12
2018-06-08T19:55:21.350Z,4.50
2018-06-08T19:57:51.375Z,5.30
2018-06-08T20:00:21.455Z,5.10
2018-06-08T20:02:51.432Z,6.58
2018-06-08T20:05:21.394Z,5.97
2018-06-08T20:07:51.553Z,5.40
2018-06-08T20:10:21.419Z,6.03
2018-06-08T20:12:51.387Z,5.65
2018-06-08T20:15:21.713Z,5.30
2018-06-08T20:17:51.656Z,5.72
2018-06-08T20:20:21.647Z,6.53
2018-06-08T20:22:51.635Z,5.72
2018-06-08T20:25:21.582Z,6.08
2018-06-08T20:27:51.694Z,5.75
2018-06-08T20:30:21.775Z,5.30
2018-06-08T20:32:51.721Z,5.75
2018-06-08T20:35:21.751Z,6.40
2018-06-08T20:37:51.828Z,5.85
2018-06-08T20:40:21.812Z,6.17
2018-06-08T20:42:51.874Z,7.12
2018-06-08T20:45:21.894Z,6.75
2018-06-08T20:47:51.873Z,6.37
2018-06-08T20:50:21.903Z,6.22
2018-06-08T20:52:51.991Z,6.30
2018-06-08T20:55:22.684Z,5.72
2018-06-08T20:58:00.726Z,6.93
2018-06-08T21:00:29.882Z,5.70
2018-06-08T21:02:59.013Z,6.30
2018-06-08T21:05:28.237Z,7.30
2018-06-08T21:07:57.512Z,6.60
2018-06-08T21:10:26.937Z,6.15
2018-06-08T21:12:56.162Z,6.35
2018-06-08T21:15:25.381Z,6.23
2018-06-08T21:17:55.166Z,6.70
2018-06-08T21:20:24.309Z,6.47
2018-06-08T21:22:53.419Z,5.57
2018-06-08T21:25:22.550Z,6.77
2018-06-08T21:27:52.218Z,6.15
2018-06-08T21:30:22.113Z,5.87
2018-06-08T21:32:52.590Z,6.23
2018-06-08T21:35:22.562Z,6.60
2018-06-08T21:37:52.342Z,5.62
2018-06-08T21:40:22.365Z,6.62
2018-06-08T21:42:52.488Z,6.50
2018-06-08T21:45:22.494Z,5.55
2018-06-08T21:47:52.602Z,7.25
2018-06-08T21:50:22.619Z,5.62
2018-06-08T21:52:52.583Z,6.50
2018-06-08T21:55:22.647Z,6.00
2018-06-08T21:57:52.655Z,7.15
2018-06-08T22:00:22.503Z,6.80
2018-06-08T22:02:52.417Z,6.76
2018-06-08T22:05:22.555Z,6.67
2018-06-08T22:07:52.791Z,7.82
2018-06-08T22:10:22.756Z,14.47
2018-06-08T22:12:52.790Z,6.67
2018-06-08T22:15:22.918Z,5.95
2018-06-08T22:17:52.838Z,6.20
2018-06-08T22:20:22.814Z,6.05
2018-06-08T22:22:52.904Z,6.47
2018-06-08T22:25:22.978Z,6.70
2018-06-08T22:27:52.908Z,6.25
2018-06-08T22:30:23.037Z,6.10
2018-06-08T22:32:53.773Z,7.05
2018-06-08T22:35:23.050Z,6.50
2018-06-08T22:37:53.042Z,7.05
2018-06-08T22:40:23.155Z,6.65
2018-06-08T22:42:53.085Z,7.97
2018-06-08T22:45:23.199Z,6.55
2018-06-08T22:47:53.347Z,8.03
2018-06-08T22:50:23.309Z,5.60
2018-06-08T22:52:53.380Z,6.85
2018-06-08T22:55:23.214Z,6.28
2018-06-08T22:57:53.404Z,5.67
2018-06-08T23:00:23.336Z,5.80
2018-06-08T23:02:53.394Z,5.90
2018-06-08T23:05:23.287Z,5.40
2018-06-08T23:07:53.417Z,5.95
2018-06-08T23:10:23.350Z,5.85
2018-06-08T23:12:53.434Z,5.90
2018-06-08T23:15:23.501Z,5.70
2018-06-08T23:17:53.516Z,5.15
2018-06-08T23:20:23.530Z,5.87
2018-06-08T23:22:54.845Z,5.33
2018-06-08T23:25:23.885Z,5.55
2018-06-08T23:27:54.858Z,5.30
2018-06-08T23:30:24.043Z,5.20
2018-06-08T23:32:54.842Z,5.92
2018-06-08T23:35:24.018Z,5.72
2018-06-08T23:37:54.908Z,4.65
2018-06-08T23:40:24.138Z,5.10
2018-06-08T23:42:54.740Z,5.60
2018-06-08T23:45:23.842Z,4.43
2018-06-08T23:47:55.115Z,5.12
2018-06-08T23:50:24.266Z,5.80
2018-06-08T23:52:54.889Z,4.87
2018-06-08T23:55:24.054Z,4.77
2018-06-08T23:57:55.230Z,5.55
